Time;durP1;ratioP1;P1;durP2;ratioP2;P2;SDS_P1;SDS_P2;PMS_P1;PMS_P2;Temp;Humidity;BMP_temperature;BMP_pressure;BME280_temperature;BME280_humidity;BME280_pressure;Samples;Min_cycle;Max_cycle;Signal;HPM_P1;HPM_P2
2023/04/23 00:00:07;;;;;;;62.88;28.23;;;5.40;99.90;;;;;;5048318;28;20045;-76
2023/04/23 00:02:34;;;;;;;72.97;29.48;;;5.50;99.90;;;;;;5026701;28;20037;-75
2023/04/23 00:05:04;;;;;;;77.53;31.33;;;5.50;99.90;;;;;;5023165;28;20041;-75
2023/04/23 00:07:34;;;;;;;93.18;33.08;;;5.50;99.90;;;;;;5025948;28;20400;-76
2023/04/23 00:10:04;;;;;;;95.15;33.85;;;5.60;99.90;;;;;;5033273;28;20457;-75
2023/04/23 00:12:31;;;;;;;93.30;33.78;;;5.60;99.90;;;;;;5038695;28;20104;-75
2023/04/23 00:14:57;;;;;;;99.45;33.88;;;5.60;99.90;;;;;;5042364;28;20048;-76
2023/04/23 00:17:23;;;;;;;98.93;36.75;;;5.70;99.90;;;;;;5043818;28;20067;-76
2023/04/23 00:19:50;;;;;;;88.60;35.72;;;5.70;99.90;;;;;;5038264;28;20037;-76
2023/04/23 00:22:16;;;;;;;110.03;36.42;;;5.80;99.90;;;;;;5051163;28;20583;-75
2023/04/23 00:24:43;;;;;;;96.70;36.17;;;5.80;99.90;;;;;;5035937;28;20043;-77
2023/04/23 00:27:09;;;;;;;115.45;38.15;;;5.80;99.90;;;;;;5033343;28;20041;-77
2023/04/23 00:29:34;;;;;;;102.53;36.33;;;5.90;99.90;;;;;;5024824;28;20063;-75
2023/04/23 00:32:02;;;;;;;113.90;38.47;;;5.90;99.90;;;;;;5027998;28;20056;-76
2023/04/23 00:34:27;;;;;;;104.72;37.03;;;5.90;99.90;;;;;;5034629;28;20059;-76
2023/04/23 00:36:54;;;;;;;109.70;37.87;;;5.90;99.90;;;;;;5023762;28;20041;-76
2023/04/23 00:39:19;;;;;;;101.78;36.55;;;5.90;99.90;;;;;;5051463;28;20041;-75
2023/04/23 00:41:45;;;;;;;127.27;38.27;;;5.80;99.90;;;;;;5033980;28;20059;-76
2023/04/23 00:44:12;;;;;;;102.63;36.93;;;5.80;99.90;;;;;;5027006;28;20158;-75
2023/04/23 00:46:37;;;;;;;110.10;38.58;;;5.80;99.90;;;;;;5047222;28;20327;-77
2023/04/23 00:49:03;;;;;;;103.10;36.70;;;5.80;99.90;;;;;;5044402;28;20044;-76
2023/04/23 00:51:30;;;;;;;116.80;39.37;;;5.80;99.90;;;;;;5043999;28;20026;-76
2023/04/23 00:53:56;;;;;;;102.95;38.08;;;5.80;99.90;;;;;;5045034;28;20117;-78
2023/04/23 00:56:23;;;;;;;97.28;36.83;;;5.80;99.90;;;;;;5027651;28;20034;-76
2023/04/23 00:58:51;;;;;;;106.15;37.75;;;5.70;99.90;;;;;;5052403;28;20120;-77
2023/04/23 01:01:19;;;;;;;106.53;39.78;;;5.70;99.90;;;;;;5045158;28;20033;-76
2023/04/23 01:03:49;;;;;;;100.40;39.28;;;5.80;99.90;;;;;;5026346;28;20170;-76
2023/04/23 01:06:15;;;;;;;97.95;38.35;;;5.80;99.90;;;;;;5030207;28;20471;-76
2023/04/23 01:08:45;;;;;;;134.43;41.92;;;5.80;99.90;;;;;;5051680;28;20116;-77
2023/04/23 01:11:16;;;;;;;108.55;39.08;;;5.80;99.90;;;;;;5042596;28;20037;-76
2023/04/23 01:13:42;;;;;;;123.47;41.13;;;5.80;99.90;;;;;;5052511;28;20041;-75
2023/04/23 01:16:09;;;;;;;112.07;40.20;;;5.80;99.90;;;;;;5030896;28;20110;-76
2023/04/23 01:18:35;;;;;;;117.20;40.70;;;5.80;99.90;;;;;;5031345;28;20049;-76
2023/04/23 01:21:02;;;;;;;114.97;40.90;;;5.80;99.90;;;;;;5027709;28;20107;-76
2023/04/23 01:23:28;;;;;;;106.95;40.72;;;5.80;99.90;;;;;;5050930;28;20560;-76
2023/04/23 01:25:54;;;;;;;137.13;43.23;;;5.70;99.90;;;;;;5030418;28;20041;-76
2023/04/23 01:28:20;;;;;;;122.97;42.60;;;5.70;99.90;;;;;;5047643;28;20120;-76
2023/04/23 01:30:47;;;;;;;114.77;41.70;;;5.70;99.90;;;;;;5030832;28;20091;-76
2023/04/23 01:33:13;;;;;;;119.47;42.35;;;5.70;99.90;;;;;;5036190;28;20079;-77
2023/04/23 01:35:40;;;;;;;136.93;44.88;;;5.60;99.90;;;;;;5031125;28;20042;-76
2023/04/23 01:38:09;;;;;;;136.32;44.55;;;5.60;99.90;;;;;;5031466;28;20072;-75
2023/04/23 01:40:34;;;;;;;124.80;44.50;;;5.60;99.90;;;;;;5031363;28;20077;-76
2023/04/23 01:43:00;;;;;;;134.23;44.37;;;5.50;99.90;;;;;;5031027;28;20072;-76
2023/04/23 01:45:26;;;;;;;136.02;47.13;;;5.60;99.90;;;;;;5028489;28;20041;-76
2023/04/23 01:47:52;;;;;;;162.93;49.37;;;5.50;99.90;;;;;;5029957;28;20055;-76
2023/04/23 01:50:22;;;;;;;134.05;46.28;;;5.50;99.90;;;;;;5029197;28;20680;-77
2023/04/23 01:52:47;;;;;;;146.45;51.35;;;5.50;99.90;;;;;;5035218;28;20041;-76
2023/04/23 01:55:13;;;;;;;146.40;50.33;;;5.50;99.90;;;;;;5026116;28;20409;-75
2023/04/23 01:57:39;;;;;;;182.00;52.13;;;5.50;99.90;;;;;;5034078;28;20045;-75
2023/04/23 02:00:10;;;;;;;169.05;53.55;;;5.40;99.90;;;;;;5041905;28;20104;-77
2023/04/23 02:02:37;;;;;;;257.73;60.70;;;5.40;99.90;;;;;;5040877;28;20041;-76
2023/04/23 02:05:04;;;;;;;299.42;66.55;;;5.50;99.90;;;;;;5030368;28;20524;-76
2023/04/23 02:07:31;;;;;;;273.10;65.97;;;5.60;99.90;;;;;;5025025;28;20041;-76
2023/04/23 02:09:57;;;;;;;298.80;68.45;;;5.60;99.90;;;;;;5030260;28;20194;-76
2023/04/23 02:12:24;;;;;;;413.23;75.73;;;5.70;99.90;;;;;;5035069;28;20077;-76
2023/04/23 02:14:50;;;;;;;642.78;94.00;;;5.80;99.90;;;;;;5052404;28;20279;-77
2023/04/23 02:17:17;;;;;;;446.17;72.38;;;5.90;99.90;;;;;;5039546;28;20041;-76
2023/04/23 02:19:43;;;;;;;557.65;80.93;;;5.90;99.90;;;;;;5036007;28;20037;-76
2023/04/23 02:22:09;;;;;;;687.50;94.83;;;6.00;99.90;;;;;;5036511;28;20048;-76
2023/04/23 02:24:35;;;;;;;658.20;92.85;;;6.00;99.90;;;;;;5028397;28;20045;-76
2023/04/23 02:27:01;;;;;;;852.55;108.78;;;6.00;99.90;;;;;;5024115;28;20037;-75
2023/04/23 02:29:26;;;;;;;597.47;89.03;;;6.10;99.90;;;;;;5026664;28;20179;-76
2023/04/23 02:31:52;;;;;;;419.50;78.70;;;6.10;99.90;;;;;;5049239;28;20061;-77
2023/04/23 02:34:18;;;;;;;701.27;100.23;;;6.10;99.90;;;;;;5046852;28;20045;-76
2023/04/23 02:36:44;;;;;;;432.30;78.50;;;6.20;99.90;;;;;;5040945;28;20053;-76
2023/04/23 02:39:09;;;;;;;477.77;80.97;;;6.20;99.90;;;;;;5032674;28;20041;-76
2023/04/23 02:41:35;;;;;;;608.23;94.50;;;6.30;99.90;;;;;;5026117;28;20548;-77
2023/04/23 02:44:01;;;;;;;583.93;92.77;;;6.30;99.90;;;;;;5034226;28;20036;-77
2023/04/23 02:46:26;;;;;;;482.57;83.50;;;6.30;99.90;;;;;;5033675;28;20041;-76
2023/04/23 02:48:52;;;;;;;647.90;98.40;;;6.30;99.90;;;;;;5033634;28;20120;-76
2023/04/23 02:51:18;;;;;;;638.47;96.70;;;6.30;99.90;;;;;;5026144;28;20036;-76
2023/04/23 02:53:44;;;;;;;615.23;97.90;;;6.30;99.90;;;;;;5029669;28;20114;-76
2023/04/23 02:56:09;;;;;;;724.10;103.40;;;6.40;99.90;;;;;;5038463;28;20037;-76
2023/04/23 02:58:35;;;;;;;583.97;97.27;;;6.40;99.90;;;;;;5045152;28;20476;-76
2023/04/23 03:01:02;;;;;;;565.87;93.07;;;6.40;99.90;;;;;;5018836;28;20041;-76
2023/04/23 03:03:30;;;;;;;590.55;100.38;;;6.40;99.90;;;;;;5017693;28;20047;-76
2023/04/23 03:05:56;;;;;;;547.40;97.07;;;6.40;99.90;;;;;;5046231;28;20390;-75
2023/04/23 03:08:22;;;;;;;712.60;108.13;;;6.50;99.90;;;;;;5049202;28;20076;-76
2023/04/23 03:10:48;;;;;;;757.43;113.83;;;6.50;99.90;;;;;;5036857;28;20041;-75
2023/04/23 03:13:14;;;;;;;655.33;106.57;;;6.50;99.90;;;;;;5037399;28;20064;-76
2023/04/23 03:15:40;;;;;;;631.90;102.47;;;6.50;99.90;;;;;;5027525;28;20041;-77
2023/04/23 03:18:07;;;;;;;615.42;106.05;;;6.50;99.90;;;;;;5034348;28;20041;-76
2023/04/23 03:20:34;;;;;;;621.10;105.45;;;6.60;99.90;;;;;;5033855;28;20060;-76
2023/04/23 03:23:00;;;;;;;508.33;98.97;;;6.60;99.90;;;;;;5049671;28;20033;-76
2023/04/23 03:25:26;;;;;;;525.67;102.37;;;6.60;99.90;;;;;;5052303;28;20037;-76
2023/04/23 03:27:52;;;;;;;367.83;86.00;;;6.70;99.90;;;;;;5055771;28;20283;-76
2023/04/23 03:30:19;;;;;;;360.05;86.75;;;6.70;99.90;;;;;;5030929;28;20045;-76
2023/04/23 03:32:45;;;;;;;398.60;92.60;;;6.70;99.90;;;;;;5041058;28;20076;-75
2023/04/23 03:35:11;;;;;;;394.50;90.77;;;6.80;99.90;;;;;;5031592;28;20076;-76
2023/04/23 03:37:36;;;;;;;453.90;99.03;;;6.80;99.90;;;;;;5038678;28;20045;-76
2023/04/23 03:40:06;;;;;;;392.80;92.67;;;6.80;99.90;;;;;;5052170;28;20042;-76
2023/04/23 03:42:32;;;;;;;386.98;93.55;;;6.80;99.90;;;;;;5050523;28;20167;-76
2023/04/23 03:45:01;;;;;;;409.70;94.88;;;6.90;99.90;;;;;;5036834;28;20053;-76
2023/04/23 03:47:26;;;;;;;379.83;89.75;;;6.90;99.90;;;;;;5034474;28;20136;-76
2023/04/23 03:49:53;;;;;;;366.37;91.93;;;6.90;99.90;;;;;;5030719;28;20071;-76
2023/04/23 03:52:19;;;;;;;339.10;91.03;;;6.90;99.90;;;;;;5048562;28;20032;-76
2023/04/23 03:54:45;;;;;;;360.47;91.00;;;7.00;99.90;;;;;;5032785;28;20083;-77
2023/04/23 03:57:11;;;;;;;363.17;90.83;;;7.00;99.90;;;;;;5048089;28;20045;-76
2023/04/23 03:59:37;;;;;;;391.95;94.60;;;7.00;99.90;;;;;;5035219;28;20044;-76
2023/04/23 04:02:03;;;;;;;337.58;89.00;;;7.00;99.90;;;;;;5033866;28;20044;-76
2023/04/23 04:04:29;;;;;;;336.93;87.03;;;7.00;99.90;;;;;;5033811;28;20044;-77
2023/04/23 04:06:56;;;;;;;300.50;84.30;;;7.10;99.90;;;;;;5034821;28;20330;-75
2023/04/23 04:09:22;;;;;;;296.88;84.05;;;7.00;99.90;;;;;;5052272;28;20033;-76
2023/04/23 04:11:48;;;;;;;313.98;83.32;;;7.10;99.90;;;;;;5033586;28;20501;-75
2023/04/23 04:14:14;;;;;;;336.27;84.03;;;7.10;99.90;;;;;;5031193;28;20091;-76
2023/04/23 04:16:39;;;;;;;268.90;79.20;;;7.00;99.90;;;;;;5054250;28;20041;-75
2023/04/23 04:19:06;;;;;;;314.47;82.10;;;7.00;99.90;;;;;;5055839;28;20158;-75
2023/04/23 04:21:32;;;;;;;258.73;77.40;;;7.00;99.90;;;;;;5036577;28;20033;-78
2023/04/23 04:24:01;;;;;;;319.48;82.05;;;7.00;99.90;;;;;;5059886;28;20047;-76
2023/04/23 04:26:28;;;;;;;330.27;81.78;;;7.10;99.90;;;;;;5037728;28;20045;-75
2023/04/23 04:28:54;;;;;;;288.52;78.78;;;7.10;99.90;;;;;;5050854;28;20682;-76
2023/04/23 04:31:20;;;;;;;270.87;76.57;;;7.10;99.90;;;;;;5029169;28;20127;-76
2023/04/23 04:33:47;;;;;;;250.25;74.43;;;7.10;99.90;;;;;;5036395;28;20045;-76
2023/04/23 04:36:13;;;;;;;288.10;79.32;;;7.10;99.90;;;;;;5035475;28;20041;-76
2023/04/23 04:38:39;;;;;;;293.52;76.75;;;7.10;99.90;;;;;;5051957;28;20037;-75
2023/04/23 04:41:06;;;;;;;267.73;76.00;;;7.10;99.90;;;;;;5044837;28;20041;-77
2023/04/23 04:43:33;;;;;;;288.10;77.45;;;7.10;99.90;;;;;;5024495;28;20037;-76
2023/04/23 04:45:59;;;;;;;257.08;74.43;;;7.10;99.90;;;;;;5029047;28;20045;-75
2023/04/23 04:48:26;;;;;;;242.93;73.00;;;7.20;99.90;;;;;;5032818;28;20076;-76
2023/04/23 04:50:52;;;;;;;251.35;74.57;;;7.20;99.90;;;;;;5029604;28;20073;-76
2023/04/23 04:53:18;;;;;;;237.65;71.80;;;7.20;99.90;;;;;;5049918;28;20520;-76
2023/04/23 04:55:43;;;;;;;211.63;69.93;;;7.20;99.90;;;;;;5054156;28;20048;-76
2023/04/23 04:58:09;;;;;;;230.37;71.67;;;7.20;99.90;;;;;;5030188;28;20493;-75
2023/04/23 05:00:35;;;;;;;209.23;68.47;;;7.20;99.90;;;;;;5048904;28;20056;-76
2023/04/23 05:03:01;;;;;;;234.97;70.37;;;7.30;99.90;;;;;;5022652;28;20367;-75
2023/04/23 05:05:27;;;;;;;245.35;73.72;;;7.30;99.90;;;;;;5042335;28;20052;-76
2023/04/23 05:07:53;;;;;;;205.87;67.47;;;7.30;99.90;;;;;;5052102;28;20033;-75
2023/04/23 05:10:19;;;;;;;214.02;69.03;;;7.30;99.90;;;;;;5035570;28;20087;-75
2023/04/23 05:12:46;;;;;;;180.53;65.17;;;7.30;99.90;;;;;;5040793;28;20045;-75
2023/04/23 05:15:12;;;;;;;189.25;66.30;;;7.40;99.90;;;;;;5036444;28;20370;-75
2023/04/23 05:17:41;;;;;;;168.73;64.80;;;7.40;99.90;;;;;;5041552;28;20068;-76
2023/04/23 05:20:13;;;;;;;184.32;65.25;;;7.40;99.90;;;;;;5058776;28;20125;-76
2023/04/23 05:22:40;;;;;;;165.77;62.63;;;7.40;99.90;;;;;;5037716;28;20076;-76
2023/04/23 05:25:08;;;;;;;167.82;61.58;;;7.50;99.90;;;;;;5053962;28;20460;-76
2023/04/23 05:27:34;;;;;;;158.95;61.88;;;7.50;99.90;;;;;;5037476;28;20037;-76
2023/04/23 05:30:02;;;;;;;162.07;61.30;;;7.60;99.90;;;;;;5038940;28;20055;-76
2023/04/23 05:32:28;;;;;;;167.93;61.53;;;7.60;99.90;;;;;;5045636;28;20049;-76
2023/04/23 05:34:54;;;;;;;159.63;61.33;;;7.70;99.90;;;;;;5060022;28;20052;-75
2023/04/23 05:37:20;;;;;;;137.30;55.55;;;7.70;99.90;;;;;;5035375;28;20044;-75
2023/04/23 05:39:47;;;;;;;131.40;56.53;;;7.80;99.90;;;;;;5027955;28;20117;-76
2023/04/23 05:42:12;;;;;;;128.30;53.70;;;7.80;99.90;;;;;;5046721;28;20073;-75
2023/04/23 05:44:40;;;;;;;135.50;55.57;;;7.80;99.90;;;;;;5034538;28;20033;-80
2023/04/23 05:47:07;;;;;;;123.63;53.00;;;7.80;99.90;;;;;;5035735;28;20057;-75
2023/04/23 05:49:34;;;;;;;124.88;52.28;;;7.80;99.90;;;;;;5053388;28;20564;-75
2023/04/23 05:52:01;;;;;;;112.47;52.05;;;7.80;99.90;;;;;;5060338;28;20071;-75
2023/04/23 05:54:27;;;;;;;118.63;51.25;;;7.90;99.90;;;;;;5053846;28;20036;-76
2023/04/23 05:56:53;;;;;;;110.63;51.42;;;7.90;99.90;;;;;;5042301;28;20069;-76
2023/04/23 05:59:19;;;;;;;107.63;50.63;;;8.00;99.90;;;;;;5051439;28;20059;-76
2023/04/23 06:01:46;;;;;;;100.37;49.37;;;8.10;99.90;;;;;;5026180;28;20038;-76
2023/04/23 06:04:12;;;;;;;112.63;49.92;;;8.30;99.90;;;;;;5031252;28;20152;-75
2023/04/23 06:06:38;;;;;;;112.88;52.35;;;8.40;99.90;;;;;;5055182;28;20044;-76
2023/04/23 06:09:04;;;;;;;102.27;50.17;;;8.60;99.90;;;;;;5075308;28;20032;-76
2023/04/23 06:11:34;;;;;;;101.18;51.00;;;8.80;99.90;;;;;;5033650;28;20041;-76
2023/04/23 06:14:01;;;;;;;99.05;51.10;;;8.80;99.90;;;;;;5038109;28;20040;-76
2023/04/23 06:16:27;;;;;;;94.32;48.97;;;9.00;99.90;;;;;;5028172;28;20057;-75
2023/04/23 06:18:55;;;;;;;103.30;49.38;;;9.00;99.90;;;;;;5049425;28;20045;-75
2023/04/23 06:21:21;;;;;;;98.15;47.83;;;9.10;99.90;;;;;;5033499;28;20036;-75
2023/04/23 06:23:47;;;;;;;95.60;48.60;;;9.20;99.90;;;;;;5052120;28;20662;-75
2023/04/23 06:26:13;;;;;;;89.43;47.30;;;9.20;99.90;;;;;;5045788;28;20053;-75
2023/04/23 06:28:41;;;;;;;90.93;47.47;;;9.30;99.90;;;;;;5030124;28;20033;-76
2023/04/23 06:31:07;;;;;;;93.10;48.38;;;9.30;99.90;;;;;;5044245;28;20034;-76
2023/04/23 06:33:35;;;;;;;89.10;46.80;;;9.40;99.90;;;;;;5035545;28;20521;-75
2023/04/23 06:36:01;;;;;;;84.65;47.00;;;9.50;99.90;;;;;;5039481;28;20045;-76
2023/04/23 06:38:27;;;;;;;85.73;47.40;;;9.60;99.90;;;;;;5031627;28;20067;-76
2023/04/23 06:40:52;;;;;;;91.40;46.47;;;9.60;99.90;;;;;;5031054;28;20051;-77
2023/04/23 06:43:18;;;;;;;81.23;46.10;;;9.70;99.90;;;;;;5038789;28;20075;-77
2023/04/23 06:45:44;;;;;;;81.07;44.70;;;9.80;99.90;;;;;;5031870;28;20076;-76
2023/04/23 06:48:10;;;;;;;81.23;44.93;;;9.90;99.90;;;;;;5027281;28;20093;-77
2023/04/23 06:50:36;;;;;;;83.83;46.03;;;9.90;99.90;;;;;;5031182;28;20063;-76
2023/04/23 06:53:01;;;;;;;80.47;45.40;;;10.00;99.90;;;;;;5038578;28;20065;-76
2023/04/23 06:55:27;;;;;;;76.80;45.23;;;10.10;99.90;;;;;;5032061;28;20076;-75
2023/04/23 06:57:54;;;;;;;73.55;42.58;;;10.20;99.90;;;;;;5034410;28;20087;-75
2023/04/23 07:00:22;;;;;;;72.82;42.10;;;10.20;99.90;;;;;;5034224;28;20123;-76
2023/04/23 07:02:47;;;;;;;67.68;40.65;;;10.30;99.90;;;;;;5033048;28;20037;-75
2023/04/23 07:05:14;;;;;;;66.10;39.83;;;10.40;99.90;;;;;;5028948;28;20043;-77
2023/04/23 07:07:41;;;;;;;68.00;40.15;;;10.40;99.90;;;;;;5023632;28;20044;-76
2023/04/23 07:10:10;;;;;;;65.88;40.25;;;10.50;99.90;;;;;;5026927;28;20088;-77
2023/04/23 07:12:37;;;;;;;61.38;37.80;;;10.50;99.90;;;;;;5026665;28;20098;-75
2023/04/23 07:15:04;;;;;;;63.20;39.45;;;10.60;99.90;;;;;;5039834;28;20025;-76
2023/04/23 07:17:29;;;;;;;61.10;38.50;;;10.60;99.90;;;;;;5031124;28;20064;-77
2023/04/23 07:19:55;;;;;;;59.80;38.77;;;10.70;99.90;;;;;;5047418;28;20094;-77
2023/04/23 07:22:22;;;;;;;68.77;40.10;;;10.80;99.90;;;;;;5042532;28;20086;-78
2023/04/23 07:24:48;;;;;;;56.38;36.08;;;11.10;99.90;;;;;;5052055;28;20640;-77
2023/04/23 07:27:14;;;;;;;59.47;37.73;;;11.20;99.90;;;;;;5043349;28;20113;-78
2023/04/23 07:29:39;;;;;;;55.73;36.33;;;11.30;99.90;;;;;;5057867;28;20044;-77
2023/04/23 07:32:05;;;;;;;57.07;36.63;;;11.30;99.90;;;;;;5059411;28;20044;-77
2023/04/23 07:34:31;;;;;;;51.83;34.63;;;11.30;99.90;;;;;;5046067;28;20516;-78
2023/04/23 07:36:57;;;;;;;56.07;35.50;;;11.30;99.90;;;;;;5043477;28;20040;-79
2023/04/23 07:39:22;;;;;;;52.60;35.47;;;11.30;99.90;;;;;;5049981;28;20045;-78
2023/04/23 07:41:48;;;;;;;55.90;36.13;;;11.30;99.90;;;;;;5040907;28;20547;-78
2023/04/23 07:44:14;;;;;;;52.00;34.33;;;11.40;99.90;;;;;;5030615;28;20042;-78
2023/04/23 07:46:40;;;;;;;51.03;33.13;;;11.60;99.90;;;;;;5041775;28;20037;-78
2023/04/23 07:49:06;;;;;;;47.67;31.37;;;11.60;99.90;;;;;;5035417;28;20187;-77
2023/04/23 07:51:32;;;;;;;44.53;30.70;;;11.70;99.90;;;;;;5043370;28;20033;-79
2023/04/23 07:53:58;;;;;;;44.63;31.30;;;11.80;99.90;;;;;;5040166;28;20313;-78
2023/04/23 07:56:24;;;;;;;44.63;30.80;;;11.90;99.90;;;;;;5028099;28;20291;-78
2023/04/23 07:58:52;;;;;;;42.37;29.97;;;12.00;99.90;;;;;;5055381;28;20041;-78
2023/04/23 08:01:18;;;;;;;40.97;29.43;;;12.00;99.90;;;;;;5059524;28;20097;-79
2023/04/23 08:03:44;;;;;;;45.17;29.73;;;12.10;99.90;;;;;;5044530;28;20287;-78
2023/04/23 08:06:13;;;;;;;38.70;27.83;;;12.10;99.90;;;;;;5031215;28;20307;-77
2023/04/23 08:08:39;;;;;;;43.73;29.33;;;12.20;99.90;;;;;;5034157;28;20792;-78
2023/04/23 08:11:06;;;;;;;43.97;29.03;;;12.30;99.90;;;;;;5057171;28;20275;-76
2023/04/23 08:13:31;;;;;;;40.03;29.40;;;12.40;99.90;;;;;;5033125;28;20048;-77
2023/04/23 08:15:57;;;;;;;41.10;28.50;;;12.50;99.90;;;;;;5037508;28;20291;-78
2023/04/23 08:18:23;;;;;;;38.17;26.03;;;12.60;99.90;;;;;;5050526;28;20033;-78
2023/04/23 08:20:49;;;;;;;37.57;26.37;;;12.70;99.90;;;;;;5037103;28;20345;-79
2023/04/23 08:23:15;;;;;;;36.23;26.20;;;12.80;99.90;;;;;;5051780;28;20047;-77
2023/04/23 08:25:41;;;;;;;36.47;26.70;;;12.90;99.90;;;;;;5033583;28;20327;-77
2023/04/23 08:28:07;;;;;;;36.27;24.97;;;12.90;99.90;;;;;;5033340;28;20330;-76
2023/04/23 08:30:33;;;;;;;35.80;26.33;;;13.00;99.90;;;;;;5040578;28;20037;-77
2023/04/23 08:32:58;;;;;;;32.70;23.60;;;13.00;99.90;;;;;;5035323;28;20057;-76
2023/04/23 08:35:24;;;;;;;30.13;22.97;;;13.10;99.90;;;;;;5035523;28;20048;-77
2023/04/23 08:37:50;;;;;;;29.57;21.37;;;13.30;99.90;;;;;;5037224;28;20068;-77
2023/04/23 08:40:16;;;;;;;27.13;20.73;;;13.40;99.90;;;;;;5039105;28;20056;-77
2023/04/23 08:42:56;;;;;;;27.73;19.10;;;13.60;99.90;;;;;;5042738;28;20033;-76
2023/04/23 08:45:22;;;;;;;25.43;19.13;;;13.70;99.90;;;;;;5039186;28;20301;-76
2023/04/23 08:47:48;;;;;;;28.70;18.90;;;13.80;99.90;;;;;;5046789;28;20287;-77
2023/04/23 08:50:16;;;;;;;26.30;18.47;;;14.00;99.90;;;;;;5046906;28;20295;-76
2023/04/23 08:52:49;;;;;;;23.20;16.70;;;14.10;99.90;;;;;;5040396;28;20045;-75
2023/04/23 08:55:17;;;;;;;19.73;14.30;;;14.20;99.90;;;;;;5048276;28;20346;-76
2023/04/23 08:57:45;;;;;;;19.73;14.13;;;14.20;99.90;;;;;;5035535;28;20771;-77
2023/04/23 09:00:12;;;;;;;20.87;12.57;;;14.30;99.90;;;;;;5032136;28;20283;-77
2023/04/23 09:02:47;;;;;;;17.23;11.60;;;14.40;99.90;;;;;;5049047;28;20279;-76
2023/04/23 09:05:13;;;;;;;;;;;14.60;99.90;;;;;;5046967;28;20291;-77
2023/04/23 09:07:40;;;;;;;14.27;9.23;;;14.70;99.90;;;;;;5031226;28;19956;-77
2023/04/23 09:10:07;;;;;;;15.67;9.03;;;14.80;99.90;;;;;;5043217;28;20300;-77
2023/04/23 09:12:39;;;;;;;14.90;8.80;;;14.90;99.90;;;;;;5027855;28;20363;-76
2023/04/23 09:15:09;;;;;;;16.97;10.07;;;14.90;99.90;;;;;;5024851;28;20287;-78
2023/04/23 09:17:38;;;;;;;16.43;10.57;;;14.80;99.90;;;;;;5027591;28;20661;-77
2023/04/23 09:20:05;;;;;;;19.57;11.27;;;14.70;99.90;;;;;;5023013;28;20280;-77
2023/04/23 09:22:57;;;;;;;17.10;11.77;;;14.60;99.90;;;;;;5042849;28;20274;-78
2023/04/23 09:25:23;;;;;;;17.73;10.93;;;14.50;99.90;;;;;;5046732;28;20370;-78
2023/04/23 09:27:50;;;;;;;20.27;11.27;;;14.50;99.90;;;;;;5028180;28;20807;-78
2023/04/23 09:30:17;;;;;;;16.57;11.57;;;14.50;99.90;;;;;;5034914;28;20094;-77
2023/04/23 09:32:48;;;;;;;15.80;11.50;;;14.50;99.90;;;;;;5036033;28;20306;-77
2023/04/23 09:35:20;;;;;;;18.23;10.90;;;14.60;99.90;;;;;;5032142;28;20288;-77
2023/04/23 09:37:51;;;;;;;17.60;11.60;;;14.80;99.90;;;;;;5046108;28;20326;-77
2023/04/23 09:40:19;;;;;;;14.13;9.57;;;14.90;99.90;;;;;;5015583;28;20362;-77
2023/04/23 09:42:51;;;;;;;16.53;11.13;;;14.90;99.90;;;;;;5048869;28;20358;-77
2023/04/23 09:45:18;;;;;;;19.43;11.13;;;15.00;99.90;;;;;;5037587;28;20323;-78
2023/04/23 09:47:52;;;;;;;17.40;10.77;;;14.90;99.90;;;;;;5029462;28;20283;-78
2023/04/23 09:50:19;;;;;;;16.00;10.02;;;14.90;99.90;;;;;;5048565;28;20307;-77
2023/04/23 09:52:52;;;;;;;15.33;10.47;;;14.80;99.90;;;;;;5023289;28;20571;-77
2023/04/23 09:55:33;;;;;;;16.70;11.10;;;14.90;99.90;;;;;;5047884;28;20285;-78
2023/04/23 09:58:00;;;;;;;13.43;9.37;;;14.90;99.90;;;;;;5031293;28;20279;-77
2023/04/23 10:00:32;;;;;;;15.10;9.83;;;14.90;99.90;;;;;;5039624;28;20272;-78
2023/04/23 10:02:59;;;;;;;16.70;10.73;;;15.00;99.90;;;;;;5032895;28;20910;-76
2023/04/23 10:05:25;;;;;;;18.07;11.10;;;15.10;99.90;;;;;;5026316;28;20341;-78
2023/04/23 10:07:51;;;;;;;15.37;9.47;;;15.10;99.90;;;;;;5044193;28;20288;-77
2023/04/23 10:10:18;;;;;;;15.13;9.07;;;15.20;99.90;;;;;;5043334;28;20034;-77
2023/04/23 10:12:45;;;;;;;12.80;7.77;;;15.30;99.90;;;;;;5024699;28;20125;-78
2023/04/23 10:15:13;;;;;;;12.00;5.63;;;15.30;99.90;;;;;;5028519;28;20284;-77
2023/04/23 10:17:39;;;;;;;12.40;7.17;;;15.30;99.90;;;;;;5043452;28;20802;-78
2023/04/23 10:20:07;;;;;;;13.73;6.97;;;15.30;99.90;;;;;;5030711;28;20291;-77
2023/04/23 10:22:34;;;;;;;14.93;8.37;;;15.40;99.90;;;;;;5039146;28;20286;-78
2023/04/23 10:25:08;;;;;;;14.77;8.30;;;15.40;99.90;;;;;;5026799;28;20634;-77
2023/04/23 10:27:38;;;;;;;13.73;6.40;;;15.40;99.90;;;;;;5024300;28;20319;-76
2023/04/23 10:30:05;;;;;;;11.43;5.30;;;15.40;99.90;;;;;;5026712;28;20273;-77
2023/04/23 10:32:33;;;;;;;8.70;5.00;;;15.50;99.90;;;;;;5022272;28;20284;-78
2023/04/23 10:34:59;;;;;;;6.37;4.00;;;15.50;99.90;;;;;;5026252;28;20280;-78
2023/04/23 10:37:25;;;;;;;7.77;5.07;;;15.50;99.90;;;;;;5023717;28;20690;-77
2023/04/23 10:39:54;;;;;;;8.60;3.17;;;15.50;99.90;;;;;;5041280;28;20049;-77
2023/04/23 10:42:22;;;;;;;7.03;3.87;;;15.60;99.90;;;;;;5041558;28;20338;-78
2023/04/23 10:44:48;;;;;;;7.07;4.07;;;15.60;99.90;;;;;;5027353;28;20284;-77
2023/04/23 10:47:15;;;;;;;7.63;2.37;;;15.70;99.90;;;;;;5028467;28;20803;-77
2023/04/23 10:49:42;;;;;;;5.17;2.00;;;15.70;99.90;;;;;;5041148;28;20057;-76
2023/04/23 10:52:13;;;;;;;5.43;1.57;;;15.80;99.90;;;;;;5040839;28;20314;-76
2023/04/23 10:54:40;;;;;;;3.07;1.20;;;15.80;99.90;;;;;;5044041;28;20690;-77
2023/04/23 10:57:07;;;;;;;4.50;2.17;;;15.90;99.90;;;;;;5027434;28;20294;-76
2023/04/23 10:59:37;;;;;;;5.03;2.03;;;16.00;99.90;;;;;;5023112;28;20317;-75
2023/04/23 11:02:12;;;;;;;4.37;2.13;;;16.10;99.90;;;;;;5026505;28;20650;-75
2023/04/23 11:04:44;;;;;;;;;;;16.30;99.90;;;;;;5025196;28;20767;-74
2023/04/23 11:07:11;;;;;;;6.30;2.83;;;16.40;99.90;;;;;;5042962;28;20007;-75
2023/04/23 11:09:40;;;;;;;6.43;3.27;;;16.50;99.90;;;;;;5039868;28;20314;-74
2023/04/23 11:12:09;;;;;;;7.47;3.80;;;16.50;99.90;;;;;;5027304;28;20417;-74
2023/04/23 11:14:42;;;;;;;5.77;3.47;;;16.60;99.90;;;;;;5020815;28;20385;-76
2023/04/23 11:17:12;;;;;;;12.97;4.70;;;16.70;99.90;;;;;;5024389;28;20406;-76
2023/04/23 11:19:39;;;;;;;10.10;4.73;;;16.80;99.90;;;;;;5045468;28;20357;-74
2023/04/23 11:22:19;;;;;;;10.80;4.83;;;16.80;99.90;;;;;;5020339;28;20288;-75
2023/04/23 11:24:45;;;;;;;6.20;4.00;;;16.90;99.90;;;;;;5021141;28;20767;-75
2023/04/23 11:27:16;;;;;;;6.47;3.90;;;17.10;99.90;;;;;;5037545;28;20304;-75
2023/04/23 11:29:43;;;;;;;8.43;4.67;;;17.30;99.90;;;;;;5020585;28;20288;-75
2023/04/23 11:32:11;;;;;;;6.03;3.07;;;17.40;99.90;;;;;;5038039;28;20355;-75
2023/04/23 11:34:42;;;;;;;6.87;3.17;;;17.50;99.90;;;;;;5036800;28;20281;-75
2023/04/23 11:37:10;;;;;;;9.97;4.10;;;17.50;99.90;;;;;;5022558;28;20275;-75
2023/04/23 11:39:36;;;;;;;9.23;3.90;;;17.60;99.90;;;;;;5014321;28;20315;-75
2023/04/23 11:42:03;;;;;;;6.90;1.60;;;17.60;99.90;;;;;;5032107;28;20302;-75
2023/04/23 11:44:30;;;;;;;7.07;2.67;;;17.50;99.90;;;;;;5041361;28;20379;-77
2023/04/23 11:47:00;;;;;;;6.17;4.00;;;17.50;99.90;;;;;;5029188;28;20335;-75
2023/04/23 11:49:25;;;;;;;5.90;2.73;;;17.40;99.90;;;;;;5023563;28;20639;-77
2023/04/23 11:51:51;;;;;;;8.60;2.27;;;17.50;99.90;;;;;;5027560;28;20292;-77
2023/04/23 11:54:17;;;;;;;9.30;2.23;;;17.60;99.90;;;;;;5027694;28;20064;-77
2023/04/23 11:56:43;;;;;;;7.33;2.30;;;17.70;99.90;;;;;;5024332;28;20045;-77
2023/04/23 11:59:09;;;;;;;9.03;2.50;;;17.90;99.90;;;;;;5043123;28;20131;-77
2023/04/23 12:01:58;;;;;;;4.63;2.27;;;18.10;99.90;;;;;;5034952;28;20401;-76
2023/04/23 12:04:26;;;;;;;6.60;2.30;;;18.20;99.90;;;;;;5068712;28;20496;-78
2023/04/23 12:06:53;;;;;;;8.73;2.70;;;18.30;99.90;;;;;;5054052;28;20867;-77
2023/04/23 12:09:21;;;;;;;6.23;2.63;;;18.30;99.90;;;;;;5028660;28;20451;-77
2023/04/23 12:11:51;;;;;;;8.63;2.60;;;18.40;99.90;;;;;;5029744;28;20284;-76
2023/04/23 12:14:25;;;;;;;7.20;2.63;;;18.60;99.90;;;;;;5033683;28;20821;-77
2023/04/23 12:16:51;;;;;;;9.18;2.10;;;18.70;99.90;;;;;;5032144;28;20053;-77
2023/04/23 12:19:28;;;;;;;7.10;2.70;;;18.90;99.90;;;;;;5032868;28;20049;-77
2023/04/23 12:21:55;;;;;;;7.10;2.23;;;19.00;99.90;;;;;;5028175;28;20053;-76
2023/04/23 12:24:23;;;;;;;7.23;1.87;;;19.10;99.90;;;;;;5045949;28;20053;-76
2023/04/23 12:26:54;;;;;;;6.67;2.10;;;19.20;99.90;;;;;;5047204;28;20041;-77
2023/04/23 12:29:24;;;;;;;6.10;2.27;;;19.20;97.40;;;;;;5045662;28;20049;-77